Dn Vatan — TCZN6 — position and weather

sailwx.info

Track history (hours):
 
Tides and Currents Weather Stations Pressure Air Temp Water Temp Dewpoint Dewpoint Depression Visibility Wind Speed Wind Dir Waves Ship Positions

Dn Vatan

Last reported at 2017-Sep-25 15:56 UTC. Time now 2017-Oct-22 14:01 UTC.
Position N 36°16' E 014°51'.
Warning: this ship's position is 26 days out of date.

Length 196 m; draft 6.6 m.

Type: Cargo ship. MMSI: 270991365.

Date/timePositionNaut miles runAvg speedWind from/ knotsBaromVisibWave heightAir tempDewpointWater temp
2017-Sep-25 15:56N 36°16' E 014°51'613.5
2017-Sep-25 15:30N 36°17' E 014°44'713.8
2017-Sep-25 15:01N 36°19' E 014°36'714.2
2017-Sep-25 14:31N 36°21' E 014°27'713.7
2017-Sep-25 14:01N 36°23' E 014°19'713.7
2017-Sep-25 13:30N 36°25' E 014°11'713.6
2017-Sep-25 13:00N 36°27' E 014°03'713.4
2017-Sep-25 12:30N 36°29' E 013°55'713.3
2017-Sep-25 12:00N 36°31' E 013°47'713.2
2017-Sep-25 11:31N 36°33' E 013°39'1713.2
2017-Sep-25 10:15N 36°38' E 013°19'413.1
2017-Sep-25 09:58N 36°39' E 013°15'46312.9
2017-Sep-23 22:06N 37°14' E 003°38'  
2017-Sep-21 03:40N 35°48' W 007°13'5612.6
2017-Sep-20 23:13N 35°40' W 008°21'312.2
2017-Sep-20 23:00N 35°40' W 008°25'1112.3
2017-Sep-20 22:08N 35°39' W 008°38'412.4
2017-Sep-20 21:50N 35°38' W 008°43'412.4
2017-Sep-20 21:30N 35°38' W 008°48'912.4
2017-Sep-20 20:47N 35°37' W 008°58'312.2
2017-Sep-20 20:30N 35°36' W 009°02'712.1
2017-Sep-20 19:57N 35°35' W 009°11'612.3
2017-Sep-20 19:30N 35°35' W 009°17'612.3
2017-Sep-20 19:00N 35°34' W 009°25'1412.2
2017-Sep-20 17:54N 35°31' W 009°41'2812.1
2017-Sep-20 15:37N 35°27' W 010°15'9712.2
2017-Sep-20 07:41N 35°10' W 012°12'1312.8
2017-Sep-20 06:38N 35°08' W 012°28'412.7
2017-Sep-20 06:19N 35°07' W 012°33'412.4
2017-Sep-20 06:00N 35°07' W 012°38'1612.3
2017-Sep-20 04:42N 35°04' W 012°57'312.3
2017-Sep-20 04:29N 35°04' W 013°00'13412.9
2017-Sep-19 18:05N 34°38' W 015°40'212.4
2017-Sep-19 17:55N 34°37' W 015°43'  
Track history (hours):
 
Tides and Currents Weather Stations Pressure Air Temp Water Temp Dewpoint Dewpoint Depression Visibility Wind Speed Wind Dir Waves Ship Positions

Dn Vatan

Last reported at 2017-Sep-25 15:56 UTC. Time now 2017-Oct-22 14:01 UTC.
Position N 36°16' E 014°51'.
Warning: this ship's position is 26 days out of date.

Length 196 m; draft 6.6 m.

Type: Cargo ship. MMSI: 270991365.

Date/timePositionNaut miles runAvg speedWind from/ knotsBaromVisibWave heightAir tempDewpointWater temp
2017-Sep-25 15:56N 36°16' E 014°51'613.5
2017-Sep-25 15:30N 36°17' E 014°44'713.8
2017-Sep-25 15:01N 36°19' E 014°36'714.2
2017-Sep-25 14:31N 36°21' E 014°27'713.7
2017-Sep-25 14:01N 36°23' E 014°19'713.7
2017-Sep-25 13:30N 36°25' E 014°11'713.6
2017-Sep-25 13:00N 36°27' E 014°03'713.4
2017-Sep-25 12:30N 36°29' E 013°55'713.3
2017-Sep-25 12:00N 36°31' E 013°47'713.2
2017-Sep-25 11:31N 36°33' E 013°39'1713.2
2017-Sep-25 10:15N 36°38' E 013°19'413.1
2017-Sep-25 09:58N 36°39' E 013°15'46312.9
2017-Sep-23 22:06N 37°14' E 003°38'  
2017-Sep-21 03:40N 35°48' W 007°13'5612.6
2017-Sep-20 23:13N 35°40' W 008°21'312.2
2017-Sep-20 23:00N 35°40' W 008°25'1112.3
2017-Sep-20 22:08N 35°39' W 008°38'412.4
2017-Sep-20 21:50N 35°38' W 008°43'412.4
2017-Sep-20 21:30N 35°38' W 008°48'912.4
2017-Sep-20 20:47N 35°37' W 008°58'312.2
2017-Sep-20 20:30N 35°36' W 009°02'712.1
2017-Sep-20 19:57N 35°35' W 009°11'612.3
2017-Sep-20 19:30N 35°35' W 009°17'612.3
2017-Sep-20 19:00N 35°34' W 009°25'1412.2
2017-Sep-20 17:54N 35°31' W 009°41'2812.1
2017-Sep-20 15:37N 35°27' W 010°15'9712.2
2017-Sep-20 07:41N 35°10' W 012°12'1312.8
2017-Sep-20 06:38N 35°08' W 012°28'412.7
2017-Sep-20 06:19N 35°07' W 012°33'412.4
2017-Sep-20 06:00N 35°07' W 012°38'1612.3
2017-Sep-20 04:42N 35°04' W 012°57'312.3
2017-Sep-20 04:29N 35°04' W 013°00'13412.9
2017-Sep-19 18:05N 34°38' W 015°40'212.4
2017-Sep-19 17:55N 34°37' W 015°43'  

Dump ship's entire track history